sensor_id;sensor_type;location;lat;lon;timestamp;temperature;humidity
19090;DHT22;9677;50.656;13.064;2022-09-09T00:01:28;18.00;59.00
19090;DHT22;9677;50.656;13.064;2022-09-09T00:04:05;17.90;59.00
19090;DHT22;9677;50.656;13.064;2022-09-09T00:06:45;17.90;59.00
19090;DHT22;9677;50.656;13.064;2022-09-09T00:09:19;17.90;59.00
19090;DHT22;9677;50.656;13.064;2022-09-09T00:11:53;17.90;59.00
19090;DHT22;9677;50.656;13.064;2022-09-09T00:14:32;17.90;59.00
19090;DHT22;9677;50.656;13.064;2022-09-09T00:17:09;17.90;59.00
19090;DHT22;9677;50.656;13.064;2022-09-09T00:19:49;17.80;58.90
19090;DHT22;9677;50.656;13.064;2022-09-09T00:22:23;17.90;58.90
19090;DHT22;9677;50.656;13.064;2022-09-09T00:24:54;17.90;58.90
19090;DHT22;9677;50.656;13.064;2022-09-09T00:27:29;17.80;58.90
19090;DHT22;9677;50.656;13.064;2022-09-09T00:30:14;17.80;58.80
19090;DHT22;9677;50.656;13.064;2022-09-09T00:32:47;17.80;58.80
19090;DHT22;9677;50.656;13.064;2022-09-09T00:35:21;17.80;58.70
19090;DHT22;9677;50.656;13.064;2022-09-09T00:37:54;17.70;58.80
19090;DHT22;9677;50.656;13.064;2022-09-09T00:40:29;17.80;58.90
19090;DHT22;9677;50.656;13.064;2022-09-09T00:43:16;17.70;58.90
19090;DHT22;9677;50.656;13.064;2022-09-09T00:46:18;17.70;58.90
19090;DHT22;9677;50.656;13.064;2022-09-09T00:49:03;17.70;58.90
19090;DHT22;9677;50.656;13.064;2022-09-09T00:51:43;17.70;58.80
19090;DHT22;9677;50.656;13.064;2022-09-09T00:54:31;17.70;58.80
19090;DHT22;9677;50.656;13.064;2022-09-09T00:57:13;17.60;59.00
19090;DHT22;9677;50.656;13.064;2022-09-09T00:59:47;17.60;58.90
19090;DHT22;9677;50.656;13.064;2022-09-09T01:02:26;17.60;58.90
19090;DHT22;9677;50.656;13.064;2022-09-09T01:05:01;17.60;58.90
19090;DHT22;9677;50.656;13.064;2022-09-09T01:07:33;17.60;58.90
19090;DHT22;9677;50.656;13.064;2022-09-09T01:10:08;17.50;58.80
19090;DHT22;9677;50.656;13.064;2022-09-09T01:12:42;17.50;58.80
19090;DHT22;9677;50.656;13.064;2022-09-09T01:15:21;17.50;58.80
19090;DHT22;9677;50.656;13.064;2022-09-09T01:17:59;17.50;58.80
19090;DHT22;9677;50.656;13.064;2022-09-09T01:20:39;17.40;58.80
19090;DHT22;9677;50.656;13.064;2022-09-09T01:23:29;17.50;58.80
19090;DHT22;9677;50.656;13.064;2022-09-09T01:26:26;17.40;58.80
19090;DHT22;9677;50.656;13.064;2022-09-09T01:29:00;17.40;58.80
19090;DHT22;9677;50.656;13.064;2022-09-09T01:31:38;17.40;58.90
19090;DHT22;9677;50.656;13.064;2022-09-09T01:34:10;17.40;58.90
19090;DHT22;9677;50.656;13.064;2022-09-09T01:36:43;17.40;58.90
19090;DHT22;9677;50.656;13.064;2022-09-09T01:39:14;17.30;58.90
19090;DHT22;9677;50.656;13.064;2022-09-09T01:41:45;17.30;58.90
19090;DHT22;9677;50.656;13.064;2022-09-09T01:44:17;17.30;58.90
19090;DHT22;9677;50.656;13.064;2022-09-09T01:46:47;17.30;58.90
19090;DHT22;9677;50.656;13.064;2022-09-09T01:49:18;17.30;58.90
19090;DHT22;9677;50.656;13.064;2022-09-09T01:51:51;17.20;58.90
19090;DHT22;9677;50.656;13.064;2022-09-09T01:54:33;17.20;59.00
19090;DHT22;9677;50.656;13.064;2022-09-09T01:57:17;17.20;59.00
19090;DHT22;9677;50.656;13.064;2022-09-09T02:00:00;17.20;59.00
19090;DHT22;9677;50.656;13.064;2022-09-09T02:02:44;17.20;59.00
19090;DHT22;9677;50.656;13.064;2022-09-09T02:05:31;17.20;59.00
19090;DHT22;9677;50.656;13.064;2022-09-09T02:08:06;17.20;59.10
19090;DHT22;9677;50.656;13.064;2022-09-09T02:10:50;17.10;59.00
19090;DHT22;9677;50.656;13.064;2022-09-09T02:13:46;17.10;59.00
19090;DHT22;9677;50.656;13.064;2022-09-09T02:16:22;17.10;58.90
19090;DHT22;9677;50.656;13.064;2022-09-09T02:18:57;17.10;59.00
19090;DHT22;9677;50.656;13.064;2022-09-09T02:21:40;17.10;59.00
19090;DHT22;9677;50.656;13.064;2022-09-09T02:24:12;17.10;59.00
19090;DHT22;9677;50.656;13.064;2022-09-09T02:26:51;17.10;59.00
19090;DHT22;9677;50.656;13.064;2022-09-09T02:29:25;17.10;58.90
19090;DHT22;9677;50.656;13.064;2022-09-09T02:31:57;17.00;58.90
19090;DHT22;9677;50.656;13.064;2022-09-09T02:34:36;17.00;58.80
19090;DHT22;9677;50.656;13.064;2022-09-09T02:37:09;17.00;58.90
19090;DHT22;9677;50.656;13.064;2022-09-09T02:39:43;17.00;58.90
19090;DHT22;9677;50.656;13.064;2022-09-09T02:42:15;17.00;58.90
19090;DHT22;9677;50.656;13.064;2022-09-09T02:44:45;16.90;58.80
19090;DHT22;9677;50.656;13.064;2022-09-09T02:47:29;16.90;58.90
19090;DHT22;9677;50.656;13.064;2022-09-09T02:50:11;16.90;59.00
19090;DHT22;9677;50.656;13.064;2022-09-09T02:52:47;16.80;59.00
19090;DHT22;9677;50.656;13.064;2022-09-09T02:55:31;16.80;59.00
19090;DHT22;9677;50.656;13.064;2022-09-09T02:58:07;16.80;58.90
19090;DHT22;9677;50.656;13.064;2022-09-09T03:00:40;16.80;59.10
19090;DHT22;9677;50.656;13.064;2022-09-09T03:03:09;16.80;59.50
19090;DHT22;9677;50.656;13.064;2022-09-09T03:05:38;16.70;59.00
19090;DHT22;9677;50.656;13.064;2022-09-09T03:08:10;16.70;59.00
19090;DHT22;9677;50.656;13.064;2022-09-09T03:10:40;16.70;59.00
19090;DHT22;9677;50.656;13.064;2022-09-09T03:13:10;16.70;59.00
19090;DHT22;9677;50.656;13.064;2022-09-09T03:15:41;16.70;59.00
19090;DHT22;9677;50.656;13.064;2022-09-09T03:18:14;16.70;59.00
19090;DHT22;9677;50.656;13.064;2022-09-09T03:20:47;16.60;58.90
19090;DHT22;9677;50.656;13.064;2022-09-09T03:23:17;16.60;58.90
19090;DHT22;9677;50.656;13.064;2022-09-09T03:25:49;16.60;58.90
19090;DHT22;9677;50.656;13.064;2022-09-09T03:28:25;16.60;58.90
19090;DHT22;9677;50.656;13.064;2022-09-09T03:31:02;16.60;59.00
19090;DHT22;9677;50.656;13.064;2022-09-09T03:33:38;16.50;59.00
19090;DHT22;9677;50.656;13.064;2022-09-09T03:36:10;16.50;59.10
19090;DHT22;9677;50.656;13.064;2022-09-09T03:38:39;16.50;59.10
19090;DHT22;9677;50.656;13.064;2022-09-09T03:41:08;16.50;59.10
19090;DHT22;9677;50.656;13.064;2022-09-09T03:43:37;16.40;59.00
19090;DHT22;9677;50.656;13.064;2022-09-09T03:46:07;16.40;59.00
19090;DHT22;9677;50.656;13.064;2022-09-09T03:48:36;16.40;59.00
19090;DHT22;9677;50.656;13.064;2022-09-09T03:51:05;16.40;59.10
19090;DHT22;9677;50.656;13.064;2022-09-09T03:53:34;16.40;59.10
19090;DHT22;9677;50.656;13.064;2022-09-09T03:56:05;16.40;59.20
19090;DHT22;9677;50.656;13.064;2022-09-09T03:58:34;16.30;59.20
19090;DHT22;9677;50.656;13.064;2022-09-09T04:01:09;16.30;59.20
19090;DHT22;9677;50.656;13.064;2022-09-09T04:03:41;16.20;59.20
19090;DHT22;9677;50.656;13.064;2022-09-09T04:06:11;16.30;59.30
19090;DHT22;9677;50.656;13.064;2022-09-09T04:08:44;16.30;59.40
19090;DHT22;9677;50.656;13.064;2022-09-09T04:11:16;16.20;59.30
19090;DHT22;9677;50.656;13.064;2022-09-09T04:13:46;16.20;59.40
19090;DHT22;9677;50.656;13.064;2022-09-09T04:16:19;16.20;59.40
19090;DHT22;9677;50.656;13.064;2022-09-09T04:18:47;16.20;59.40
19090;DHT22;9677;50.656;13.064;2022-09-09T04:21:17;16.20;59.40
19090;DHT22;9677;50.656;13.064;2022-09-09T04:23:45;16.10;59.40
19090;DHT22;9677;50.656;13.064;2022-09-09T04:26:14;16.20;59.50
19090;DHT22;9677;50.656;13.064;2022-09-09T04:28:44;16.20;59.40
19090;DHT22;9677;50.656;13.064;2022-09-09T04:31:20;16.10;59.40
19090;DHT22;9677;50.656;13.064;2022-09-09T04:33:53;16.10;59.50
19090;DHT22;9677;50.656;13.064;2022-09-09T04:36:22;16.10;59.50
19090;DHT22;9677;50.656;13.064;2022-09-09T04:38:54;16.10;59.60
19090;DHT22;9677;50.656;13.064;2022-09-09T04:41:22;16.10;59.60
19090;DHT22;9677;50.656;13.064;2022-09-09T04:43:53;16.10;59.60
19090;DHT22;9677;50.656;13.064;2022-09-09T04:46:23;16.10;59.70
19090;DHT22;9677;50.656;13.064;2022-09-09T04:48:52;16.00;59.70
19090;DHT22;9677;50.656;13.064;2022-09-09T04:51:25;16.00;59.70
19090;DHT22;9677;50.656;13.064;2022-09-09T04:53:53;16.00;59.70
19090;DHT22;9677;50.656;13.064;2022-09-09T04:56:22;16.00;59.80
19090;DHT22;9677;50.656;13.064;2022-09-09T04:58:56;16.10;59.90
19090;DHT22;9677;50.656;13.064;2022-09-09T05:01:38;16.00;59.90
19090;DHT22;9677;50.656;13.064;2022-09-09T05:04:07;16.00;60.00
19090;DHT22;9677;50.656;13.064;2022-09-09T05:06:36;16.10;60.00
19090;DHT22;9677;50.656;13.064;2022-09-09T05:09:05;16.00;60.00
19090;DHT22;9677;50.656;13.064;2022-09-09T05:11:33;16.10;60.00
19090;DHT22;9677;50.656;13.064;2022-09-09T05:14:09;16.10;60.10
19090;DHT22;9677;50.656;13.064;2022-09-09T05:16:39;16.10;60.10
19090;DHT22;9677;50.656;13.064;2022-09-09T05:19:08;16.10;60.10
19090;DHT22;9677;50.656;13.064;2022-09-09T05:21:49;16.10;60.10
19090;DHT22;9677;50.656;13.064;2022-09-09T05:24:23;16.10;60.10
19090;DHT22;9677;50.656;13.064;2022-09-09T05:26:54;16.10;60.10
19090;DHT22;9677;50.656;13.064;2022-09-09T05:29:26;16.20;60.20
19090;DHT22;9677;50.656;13.064;2022-09-09T05:31:57;16.20;60.20
19090;DHT22;9677;50.656;13.064;2022-09-09T05:34:26;16.20;60.30
19090;DHT22;9677;50.656;13.064;2022-09-09T05:36:54;16.20;61.10
19090;DHT22;9677;50.656;13.064;2022-09-09T05:39:24;16.20;60.40
19090;DHT22;9677;50.656;13.064;2022-09-09T05:41:52;16.20;60.40
19090;DHT22;9677;50.656;13.064;2022-09-09T05:44:21;16.20;60.40
19090;DHT22;9677;50.656;13.064;2022-09-09T05:46:50;16.20;60.30
19090;DHT22;9677;50.656;13.064;2022-09-09T05:49:20;16.30;60.40
19090;DHT22;9677;50.656;13.064;2022-09-09T05:51:49;16.30;60.40
19090;DHT22;9677;50.656;13.064;2022-09-09T05:54:19;16.30;60.40
19090;DHT22;9677;50.656;13.064;2022-09-09T05:56:50;16.30;60.40
19090;DHT22;9677;50.656;13.064;2022-09-09T05:59:20;16.40;60.60
19090;DHT22;9677;50.656;13.064;2022-09-09T06:01:52;16.30;60.50
19090;DHT22;9677;50.656;13.064;2022-09-09T06:04:31;16.40;60.60
19090;DHT22;9677;50.656;13.064;2022-09-09T06:07:00;16.40;60.70
19090;DHT22;9677;50.656;13.064;2022-09-09T06:09:29;16.40;60.70
19090;DHT22;9677;50.656;13.064;2022-09-09T06:11:58;16.40;60.80
19090;DHT22;9677;50.656;13.064;2022-09-09T06:14:27;16.50;60.80
19090;DHT22;9677;50.656;13.064;2022-09-09T06:16:58;16.50;60.80
19090;DHT22;9677;50.656;13.064;2022-09-09T06:19:30;16.60;60.90
19090;DHT22;9677;50.656;13.064;2022-09-09T06:21:59;16.60;60.90
19090;DHT22;9677;50.656;13.064;2022-09-09T06:24:30;16.60;60.90
19090;DHT22;9677;50.656;13.064;2022-09-09T06:27:01;16.70;61.00
19090;DHT22;9677;50.656;13.064;2022-09-09T06:29:33;16.70;61.00
19090;DHT22;9677;50.656;13.064;2022-09-09T06:32:02;16.80;61.00
19090;DHT22;9677;50.656;13.064;2022-09-09T06:34:32;16.80;61.00
19090;DHT22;9677;50.656;13.064;2022-09-09T06:37:02;16.80;61.00
19090;DHT22;9677;50.656;13.064;2022-09-09T06:39:42;16.90;61.10
19090;DHT22;9677;50.656;13.064;2022-09-09T06:42:10;16.90;61.10
19090;DHT22;9677;50.656;13.064;2022-09-09T06:44:48;17.00;61.10
19090;DHT22;9677;50.656;13.064;2022-09-09T06:47:36;17.10;61.20
19090;DHT22;9677;50.656;13.064;2022-09-09T06:50:07;17.10;61.20
19090;DHT22;9677;50.656;13.064;2022-09-09T06:52:38;17.10;61.20
19090;DHT22;9677;50.656;13.064;2022-09-09T06:55:08;17.20;61.20
19090;DHT22;9677;50.656;13.064;2022-09-09T06:57:37;17.20;61.30
19090;DHT22;9677;50.656;13.064;2022-09-09T07:00:12;17.50;61.40
19090;DHT22;9677;50.656;13.064;2022-09-09T07:02:41;17.40;61.40
19090;DHT22;9677;50.656;13.064;2022-09-09T07:05:13;17.40;61.30
19090;DHT22;9677;50.656;13.064;2022-09-09T07:07:44;17.60;61.50
19090;DHT22;9677;50.656;13.064;2022-09-09T07:10:14;17.50;61.40
19090;DHT22;9677;50.656;13.064;2022-09-09T07:12:44;17.60;61.50
19090;DHT22;9677;50.656;13.064;2022-09-09T07:15:13;17.70;61.40
19090;DHT22;9677;50.656;13.064;2022-09-09T07:17:44;17.70;61.40
19090;DHT22;9677;50.656;13.064;2022-09-09T07:20:15;17.90;61.60
19090;DHT22;9677;50.656;13.064;2022-09-09T07:22:44;17.80;61.60
19090;DHT22;9677;50.656;13.064;2022-09-09T07:25:12;17.90;61.70
19090;DHT22;9677;50.656;13.064;2022-09-09T07:27:41;18.00;61.80
19090;DHT22;9677;50.656;13.064;2022-09-09T07:30:11;18.00;61.80
19090;DHT22;9677;50.656;13.064;2022-09-09T07:32:47;18.20;62.00
19090;DHT22;9677;50.656;13.064;2022-09-09T07:35:17;18.50;62.10
19090;DHT22;9677;50.656;13.064;2022-09-09T07:37:47;18.30;62.00
19090;DHT22;9677;50.656;13.064;2022-09-09T07:40:18;18.40;62.00
19090;DHT22;9677;50.656;13.064;2022-09-09T07:42:48;18.40;61.80
19090;DHT22;9677;50.656;13.064;2022-09-09T07:45:17;18.50;61.90
19090;DHT22;9677;50.656;13.064;2022-09-09T07:47:45;18.60;61.80
19090;DHT22;9677;50.656;13.064;2022-09-09T07:50:15;18.90;62.00
19090;DHT22;9677;50.656;13.064;2022-09-09T07:52:45;18.80;61.90
19090;DHT22;9677;50.656;13.064;2022-09-09T07:55:13;18.80;61.90
19090;DHT22;9677;50.656;13.064;2022-09-09T07:57:42;18.90;61.80
19090;DHT22;9677;50.656;13.064;2022-09-09T08:00:13;19.00;61.80
19090;DHT22;9677;50.656;13.064;2022-09-09T08:02:48;19.00;61.80
19090;DHT22;9677;50.656;13.064;2022-09-09T08:05:16;19.10;61.80
19090;DHT22;9677;50.656;13.064;2022-09-09T08:07:46;19.10;61.70
19090;DHT22;9677;50.656;13.064;2022-09-09T08:10:15;19.10;61.70
19090;DHT22;9677;50.656;13.064;2022-09-09T08:12:46;19.30;61.80
19090;DHT22;9677;50.656;13.064;2022-09-09T08:15:36;19.30;61.80
19090;DHT22;9677;50.656;13.064;2022-09-09T08:18:05;19.40;61.90
19090;DHT22;9677;50.656;13.064;2022-09-09T08:20:36;19.50;61.80
19090;DHT22;9677;50.656;13.064;2022-09-09T08:23:07;19.70;62.00
19090;DHT22;9677;50.656;13.064;2022-09-09T08:25:35;19.80;62.00
19090;DHT22;9677;50.656;13.064;2022-09-09T08:28:03;19.70;61.80
19090;DHT22;9677;50.656;13.064;2022-09-09T08:30:32;19.70;61.80
19090;DHT22;9677;50.656;13.064;2022-09-09T08:33:01;19.90;62.00
19090;DHT22;9677;50.656;13.064;2022-09-09T08:35:29;19.90;62.00
19090;DHT22;9677;50.656;13.064;2022-09-09T08:37:59;20.00;62.00
19090;DHT22;9677;50.656;13.064;2022-09-09T08:40:39;20.00;62.10
19090;DHT22;9677;50.656;13.064;2022-09-09T08:43:13;20.10;62.50
19090;DHT22;9677;50.656;13.064;2022-09-09T08:45:49;20.20;62.30
19090;DHT22;9677;50.656;13.064;2022-09-09T08:48:39;20.30;62.50
19090;DHT22;9677;50.656;13.064;2022-09-09T08:51:13;20.40;62.50
19090;DHT22;9677;50.656;13.064;2022-09-09T08:53:45;20.50;62.10
19090;DHT22;9677;50.656;13.064;2022-09-09T08:56:21;20.60;61.90
19090;DHT22;9677;50.656;13.064;2022-09-09T08:58:55;20.70;61.60
19090;DHT22;9677;50.656;13.064;2022-09-09T09:01:55;20.80;61.50
19090;DHT22;9677;50.656;13.064;2022-09-09T09:04:48;20.80;61.50
19090;DHT22;9677;50.656;13.064;2022-09-09T09:07:35;20.90;61.20
19090;DHT22;9677;50.656;13.064;2022-09-09T09:10:17;21.00;61.00
19090;DHT22;9677;50.656;13.064;2022-09-09T09:13:18;21.00;60.70
19090;DHT22;9677;50.656;13.064;2022-09-09T09:15:55;21.10;60.60
19090;DHT22;9677;50.656;13.064;2022-09-09T09:18:27;21.20;60.40
19090;DHT22;9677;50.656;13.064;2022-09-09T09:21:17;21.30;60.20
19090;DHT22;9677;50.656;13.064;2022-09-09T09:23:55;21.30;60.00
19090;DHT22;9677;50.656;13.064;2022-09-09T09:26:34;21.50;59.80
19090;DHT22;9677;50.656;13.064;2022-09-09T09:29:11;21.50;59.60
19090;DHT22;9677;50.656;13.064;2022-09-09T09:31:45;21.50;59.60
19090;DHT22;9677;50.656;13.064;2022-09-09T09:34:15;21.60;59.50
19090;DHT22;9677;50.656;13.064;2022-09-09T09:36:52;21.70;59.50
19090;DHT22;9677;50.656;13.064;2022-09-09T09:39:24;21.80;59.10
19090;DHT22;9677;50.656;13.064;2022-09-09T09:42:16;22.00;59.30
19090;DHT22;9677;50.656;13.064;2022-09-09T09:44:52;22.00;59.00
19090;DHT22;9677;50.656;13.064;2022-09-09T09:47:22;22.20;58.70
19090;DHT22;9677;50.656;13.064;2022-09-09T09:49:59;22.40;58.80
19090;DHT22;9677;50.656;13.064;2022-09-09T09:52:35;22.40;58.60
19090;DHT22;9677;50.656;13.064;2022-09-09T09:55:12;22.50;58.60
19090;DHT22;9677;50.656;13.064;2022-09-09T09:57:44;22.60;57.90
19090;DHT22;9677;50.656;13.064;2022-09-09T10:00:16;22.70;58.00
19090;DHT22;9677;50.656;13.064;2022-09-09T10:02:55;22.80;57.20
19090;DHT22;9677;50.656;13.064;2022-09-09T10:05:28;22.90;57.00
19090;DHT22;9677;50.656;13.064;2022-09-09T10:08:11;23.00;57.30
19090;DHT22;9677;50.656;13.064;2022-09-09T10:10:50;23.10;56.60
19090;DHT22;9677;50.656;13.064;2022-09-09T10:13:27;23.10;56.30
19090;DHT22;9677;50.656;13.064;2022-09-09T10:16:19;23.30;56.50
19090;DHT22;9677;50.656;13.064;2022-09-09T10:18:59;23.30;56.00
19090;DHT22;9677;50.656;13.064;2022-09-09T10:21:46;23.40;56.10
19090;DHT22;9677;50.656;13.064;2022-09-09T10:24:39;23.50;55.70
19090;DHT22;9677;50.656;13.064;2022-09-09T10:27:22;23.60;55.80
19090;DHT22;9677;50.656;13.064;2022-09-09T10:30:01;23.70;56.20
19090;DHT22;9677;50.656;13.064;2022-09-09T10:32:45;23.90;56.10
19090;DHT22;9677;50.656;13.064;2022-09-09T10:35:24;24.00;56.00
19090;DHT22;9677;50.656;13.064;2022-09-09T10:38:13;24.20;55.70
19090;DHT22;9677;50.656;13.064;2022-09-09T10:43:59;24.50;55.20
19090;DHT22;9677;50.656;13.064;2022-09-09T10:46:46;24.70;54.70
19090;DHT22;9677;50.656;13.064;2022-09-09T10:49:35;24.80;54.40
19090;DHT22;9677;50.656;13.064;2022-09-09T10:52:29;24.90;54.10
19090;DHT22;9677;50.656;13.064;2022-09-09T10:55:03;25.20;54.00
19090;DHT22;9677;50.656;13.064;2022-09-09T10:57:39;25.30;54.20
19090;DHT22;9677;50.656;13.064;2022-09-09T11:00:16;25.40;53.10
19090;DHT22;9677;50.656;13.064;2022-09-09T11:02:50;25.50;51.70
19090;DHT22;9677;50.656;13.064;2022-09-09T11:05:27;25.60;52.10
19090;DHT22;9677;50.656;13.064;2022-09-09T11:08:03;25.70;51.80
19090;DHT22;9677;50.656;13.064;2022-09-09T11:10:38;25.80;51.90
19090;DHT22;9677;50.656;13.064;2022-09-09T11:13:11;25.90;51.70
19090;DHT22;9677;50.656;13.064;2022-09-09T11:15:46;26.10;51.80
19090;DHT22;9677;50.656;13.064;2022-09-09T11:18:19;26.20;51.30
19090;DHT22;9677;50.656;13.064;2022-09-09T11:20:56;26.30;51.10
19090;DHT22;9677;50.656;13.064;2022-09-09T11:23:32;26.40;50.70
19090;DHT22;9677;50.656;13.064;2022-09-09T11:26:10;26.40;50.90
19090;DHT22;9677;50.656;13.064;2022-09-09T11:28:54;26.60;50.70
19090;DHT22;9677;50.656;13.064;2022-09-09T11:31:44;26.60;49.80
19090;DHT22;9677;50.656;13.064;2022-09-09T11:34:22;26.80;50.20
19090;DHT22;9677;50.656;13.064;2022-09-09T11:37:14;26.90;50.20
19090;DHT22;9677;50.656;13.064;2022-09-09T11:40:09;27.10;49.50
19090;DHT22;9677;50.656;13.064;2022-09-09T11:42:48;27.20;49.30
19090;DHT22;9677;50.656;13.064;2022-09-09T11:45:24;27.30;50.10
19090;DHT22;9677;50.656;13.064;2022-09-09T11:47:56;27.40;49.20
19090;DHT22;9677;50.656;13.064;2022-09-09T11:50:34;27.40;48.80
19090;DHT22;9677;50.656;13.064;2022-09-09T11:53:21;27.40;48.00
19090;DHT22;9677;50.656;13.064;2022-09-09T11:56:10;27.40;47.50
19090;DHT22;9677;50.656;13.064;2022-09-09T11:58:44;27.50;46.60
19090;DHT22;9677;50.656;13.064;2022-09-09T12:01:33;27.50;48.60
19090;DHT22;9677;50.656;13.064;2022-09-09T12:04:14;27.50;48.00
19090;DHT22;9677;50.656;13.064;2022-09-09T12:06:51;27.60;48.00
19090;DHT22;9677;50.656;13.064;2022-09-09T12:09:32;27.60;48.50
19090;DHT22;9677;50.656;13.064;2022-09-09T12:12:22;27.60;47.70
19090;DHT22;9677;50.656;13.064;2022-09-09T12:14:58;27.60;47.70
19090;DHT22;9677;50.656;13.064;2022-09-09T12:17:48;27.60;48.10
19090;DHT22;9677;50.656;13.064;2022-09-09T12:20:20;27.70;48.20
19090;DHT22;9677;50.656;13.064;2022-09-09T12:23:04;27.80;48.10
19090;DHT22;9677;50.656;13.064;2022-09-09T12:25:57;27.80;47.30
19090;DHT22;9677;50.656;13.064;2022-09-09T12:28:42;27.90;46.60
19090;DHT22;9677;50.656;13.064;2022-09-09T12:31:19;27.90;46.00
19090;DHT22;9677;50.656;13.064;2022-09-09T12:33:50;27.90;46.60
19090;DHT22;9677;50.656;13.064;2022-09-09T12:36:22;27.90;47.00
19090;DHT22;9677;50.656;13.064;2022-09-09T12:38:53;27.90;46.40
19090;DHT22;9677;50.656;13.064;2022-09-09T12:41:26;27.90;46.80
19090;DHT22;9677;50.656;13.064;2022-09-09T12:44:04;27.90;46.50
19090;DHT22;9677;50.656;13.064;2022-09-09T12:46:37;27.90;46.10
19090;DHT22;9677;50.656;13.064;2022-09-09T12:49:26;28.00;46.80
19090;DHT22;9677;50.656;13.064;2022-09-09T12:51:57;28.00;45.70
19090;DHT22;9677;50.656;13.064;2022-09-09T12:54:27;28.00;46.60
19090;DHT22;9677;50.656;13.064;2022-09-09T12:56:57;28.00;46.70
19090;DHT22;9677;50.656;13.064;2022-09-09T12:59:27;28.10;46.30
19090;DHT22;9677;50.656;13.064;2022-09-09T13:02:16;28.10;46.10
19090;DHT22;9677;50.656;13.064;2022-09-09T13:04:47;28.10;45.70
19090;DHT22;9677;50.656;13.064;2022-09-09T13:07:18;28.10;45.80
19090;DHT22;9677;50.656;13.064;2022-09-09T13:09:47;28.10;45.70
19090;DHT22;9677;50.656;13.064;2022-09-09T13:12:19;28.10;45.70
19090;DHT22;9677;50.656;13.064;2022-09-09T13:14:51;28.10;45.60
19090;DHT22;9677;50.656;13.064;2022-09-09T13:17:22;28.00;45.40
19090;DHT22;9677;50.656;13.064;2022-09-09T13:19:52;27.90;45.50
19090;DHT22;9677;50.656;13.064;2022-09-09T13:22:29;27.90;45.50
19090;DHT22;9677;50.656;13.064;2022-09-09T13:25:03;27.90;45.20
19090;DHT22;9677;50.656;13.064;2022-09-09T13:27:35;27.80;45.30
19090;DHT22;9677;50.656;13.064;2022-09-09T13:30:23;27.70;45.00
19090;DHT22;9677;50.656;13.064;2022-09-09T13:33:06;27.60;44.50
19090;DHT22;9677;50.656;13.064;2022-09-09T13:35:49;27.50;45.10
19090;DHT22;9677;50.656;13.064;2022-09-09T13:38:19;27.40;45.70
19090;DHT22;9677;50.656;13.064;2022-09-09T13:40:55;27.30;45.70
19090;DHT22;9677;50.656;13.064;2022-09-09T13:43:27;27.30;45.60
19090;DHT22;9677;50.656;13.064;2022-09-09T13:45:59;27.20;45.70
19090;DHT22;9677;50.656;13.064;2022-09-09T13:48:29;27.10;45.80
19090;DHT22;9677;50.656;13.064;2022-09-09T13:51:00;27.00;45.80
19090;DHT22;9677;50.656;13.064;2022-09-09T13:53:31;27.00;45.70
19090;DHT22;9677;50.656;13.064;2022-09-09T13:56:00;26.90;45.60
19090;DHT22;9677;50.656;13.064;2022-09-09T13:58:30;26.90;45.80
19090;DHT22;9677;50.656;13.064;2022-09-09T14:00:58;26.80;45.70
19090;DHT22;9677;50.656;13.064;2022-09-09T14:03:27;26.70;46.10
19090;DHT22;9677;50.656;13.064;2022-09-09T14:05:55;26.60;46.00
19090;DHT22;9677;50.656;13.064;2022-09-09T14:08:25;26.60;46.10
19090;DHT22;9677;50.656;13.064;2022-09-09T14:10:55;26.40;46.10
19090;DHT22;9677;50.656;13.064;2022-09-09T14:13:25;26.30;46.50
19090;DHT22;9677;50.656;13.064;2022-09-09T14:15:54;26.20;46.80
19090;DHT22;9677;50.656;13.064;2022-09-09T14:18:23;26.20;47.10
19090;DHT22;9677;50.656;13.064;2022-09-09T14:20:52;26.10;47.20
19090;DHT22;9677;50.656;13.064;2022-09-09T14:23:20;26.10;47.40
19090;DHT22;9677;50.656;13.064;2022-09-09T14:25:49;25.90;47.50
19090;DHT22;9677;50.656;13.064;2022-09-09T14:28:18;25.90;47.40
19090;DHT22;9677;50.656;13.064;2022-09-09T14:31:08;25.80;47.30
19090;DHT22;9677;50.656;13.064;2022-09-09T14:33:37;25.70;47.30
19090;DHT22;9677;50.656;13.064;2022-09-09T14:36:06;25.60;47.40
19090;DHT22;9677;50.656;13.064;2022-09-09T14:38:37;25.60;47.60
19090;DHT22;9677;50.656;13.064;2022-09-09T14:41:07;25.50;47.60
19090;DHT22;9677;50.656;13.064;2022-09-09T14:43:37;25.50;47.80
19090;DHT22;9677;50.656;13.064;2022-09-09T14:46:06;25.40;47.90
19090;DHT22;9677;50.656;13.064;2022-09-09T14:48:36;25.30;48.00
19090;DHT22;9677;50.656;13.064;2022-09-09T14:51:08;25.20;48.10
19090;DHT22;9677;50.656;13.064;2022-09-09T14:53:40;25.30;48.30
19090;DHT22;9677;50.656;13.064;2022-09-09T14:56:10;25.20;48.10
19090;DHT22;9677;50.656;13.064;2022-09-09T14:58:40;25.10;48.00
19090;DHT22;9677;50.656;13.064;2022-09-09T15:01:11;25.10;48.10
19090;DHT22;9677;50.656;13.064;2022-09-09T15:03:47;25.20;48.10
19090;DHT22;9677;50.656;13.064;2022-09-09T15:06:18;25.00;48.80
19090;DHT22;9677;50.656;13.064;2022-09-09T15:08:50;24.90;48.10
19090;DHT22;9677;50.656;13.064;2022-09-09T15:11:20;24.90;48.40
19090;DHT22;9677;50.656;13.064;2022-09-09T15:13:51;24.90;48.60
19090;DHT22;9677;50.656;13.064;2022-09-09T15:16:24;24.90;48.80
19090;DHT22;9677;50.656;13.064;2022-09-09T15:18:55;24.80;48.90
19090;DHT22;9677;50.656;13.064;2022-09-09T15:21:26;24.80;49.00
19090;DHT22;9677;50.656;13.064;2022-09-09T15:23:56;24.80;49.10
19090;DHT22;9677;50.656;13.064;2022-09-09T15:26:26;24.70;49.10
19090;DHT22;9677;50.656;13.064;2022-09-09T15:28:54;24.70;49.20
19090;DHT22;9677;50.656;13.064;2022-09-09T15:31:29;24.70;49.30
19090;DHT22;9677;50.656;13.064;2022-09-09T15:34:00;24.70;49.40
19090;DHT22;9677;50.656;13.064;2022-09-09T15:36:31;24.60;49.40
19090;DHT22;9677;50.656;13.064;2022-09-09T15:39:01;24.70;49.60
19090;DHT22;9677;50.656;13.064;2022-09-09T15:41:30;24.60;49.60
19090;DHT22;9677;50.656;13.064;2022-09-09T15:43:59;24.50;49.50
19090;DHT22;9677;50.656;13.064;2022-09-09T15:46:31;24.50;49.60
19090;DHT22;9677;50.656;13.064;2022-09-09T15:49:04;24.50;49.70
19090;DHT22;9677;50.656;13.064;2022-09-09T15:51:36;24.50;49.80
19090;DHT22;9677;50.656;13.064;2022-09-09T15:54:11;24.40;49.70
19090;DHT22;9677;50.656;13.064;2022-09-09T15:56:41;24.30;49.80
19090;DHT22;9677;50.656;13.064;2022-09-09T15:59:09;24.30;49.80
19090;DHT22;9677;50.656;13.064;2022-09-09T16:01:40;24.30;49.90
19090;DHT22;9677;50.656;13.064;2022-09-09T16:04:09;24.20;49.90
19090;DHT22;9677;50.656;13.064;2022-09-09T16:06:38;24.20;50.00
19090;DHT22;9677;50.656;13.064;2022-09-09T16:09:07;24.30;50.20
19090;DHT22;9677;50.656;13.064;2022-09-09T16:11:38;24.10;50.20
19090;DHT22;9677;50.656;13.064;2022-09-09T16:14:06;24.10;50.20
19090;DHT22;9677;50.656;13.064;2022-09-09T16:16:35;24.10;50.20
19090;DHT22;9677;50.656;13.064;2022-09-09T16:19:06;24.10;50.00